ADDS METAR Data INFO
IDs: Format: Raw Decoded Include TAF

Data at: 1847 UTC 17 Oct 2017

KAEJ 171835Z AUTO 14005KT 10SM CLR 16/M18 A3037 RMK AO2 T01641181
KAEJ 171815Z AUTO 16003KT 10SM CLR 16/M18 A3038 RMK AO2 T01591179
KAEJ 171755Z AUTO 09003KT 10SM CLR 15/M17 A3039 RMK AO2 T01541173 10154 21029
KAEJ 171735Z AUTO 12004KT 10SM CLR 15/M16 A3040 RMK AO2 T01461165
KAEJ 171715Z AUTO 14004KT 10SM CLR 14/M17 A3042 RMK AO2 T01361166
KAEJ 171655Z AUTO 11004KT 10SM CLR 13/M16 A3042 RMK AO2 T01251160
KAEJ 171635Z AUTO 00000KT 10SM CLR 11/M16 A3043 RMK AO2 T01131159
KAEJ 171615Z AUTO 00000KT 10SM CLR 10/M16 A3044 RMK AO2 T01041157
KAEJ 171555Z AUTO 00000KT 10SM CLR 10/M16 A3045 RMK AO2 T00961165
KAEJ 171535Z AUTO 33004KT 10SM CLR 08/M15 A3045 RMK AO2 T00811154
KAEJ 171515Z AUTO 33007KT 10SM CLR 07/M16 A3045 RMK AO2 T00681163
KAEJ 171455Z AUTO 32008KT 10SM CLR 06/M15 A3045 RMK AO2 T00551154
KAEJ 171435Z AUTO 00000KT 7SM CLR 03/M14 A3046 RMK AO2 T00261136
KAEJ 171415Z AUTO 34004KT 10SM CLR 02/M14 A3045 RMK AO2 T00221140
KAEJ 171355Z AUTO 00000KT 10SM CLR M01/M13 A3045 RMK AO2 T10061135
KAEJ 171335Z AUTO 35003KT 10SM CLR M03/M14 A3045 RMK AO2 T10291136
KAEJ 171315Z AUTO 31005KT 10SM CLR M02/M13 A3045 RMK AO2 T10191135
KAEJ 171255Z AUTO 34003KT 10SM CLR M02/M14 A3045 RMK AO2 T10181138
KAEJ 171235Z AUTO 00000KT 10SM CLR M02/M13 A3045 RMK AO2 T10241135
KAEJ 171215Z AUTO 28006KT 10SM CLR M01/M14 A3045 RMK AO2 T10121140
KAEJ 171155Z AUTO 29004KT 10SM CLR M02/M14 A3045 RMK AO2 T10201142 10046 21020
KAEJ 171135Z AUTO 26004KT 10SM CLR 00/M15 A3045 RMK AO2 T10011148
KAEJ 171115Z AUTO 00000KT 10SM CLR 00/M15 A3045 RMK AO2 T00011150
KAEJ 171055Z AUTO 27003KT 10SM CLR 00/M15 A3045 RMK AO2 T00031149
KAEJ 171035Z AUTO 00000KT 10SM CLR M01/M15 A3045 RMK AO2 T10101148
KAEJ 171015Z AUTO 28003KT 10SM CLR 00/M15 A3045 RMK AO2 T00011147
KAEJ 170955Z AUTO 00000KT 10SM CLR 00/M14 A3045 RMK AO2 T00001145
KAEJ 170935Z AUTO 31004KT 10SM CLR 00/M15 A3045 RMK AO2 T00021148
KAEJ 170915Z AUTO 35004KT 10SM CLR 00/M14 A3045 RMK AO2 T00001142
KAEJ 170855Z AUTO 24003KT 10SM CLR 01/M15 A3046 RMK AO2 T00081149
KAEJ 170835Z AUTO 32003KT 10SM CLR 00/M14 A3046 RMK AO2 T00021144
KAEJ 170815Z AUTO 29005KT 10SM CLR 02/M15 A3046 RMK AO2 T00151146
KAEJ 170755Z AUTO 31007KT 10SM CLR 03/M15 A3046 RMK AO2 T00301151
KAEJ 170735Z AUTO 00000KT 10SM CLR 01/M15 A3046 RMK AO2 T00141151
KAEJ 170715Z AUTO 33008KT 10SM CLR 03/M15 A3045 RMK AO2 T00311150
KAEJ 170655Z AUTO 00000KT 10SM CLR 02/M15 A3046 RMK AO2 T00201150
KAEJ 170635Z AUTO 32005KT 10SM CLR 04/M15 A3046 RMK AO2 T00371153
KAEJ 170615Z AUTO 32005KT 10SM CLR 04/M16 A3046 RMK AO2 T00431157
KAEJ 170555Z AUTO 29010KT 10SM CLR 04/M15 A3045 RMK AO2 T00421154 10173 20033 402111061
KAEJ 170535Z AUTO 29007KT 10SM CLR 04/M16 A3046 RMK AO2 T00391157
KAEJ 170515Z AUTO 30005KT 10SM CLR 05/M16 A3046 RMK AO2 T00471160
KAEJ 170455Z AUTO 30009KT 10SM CLR 06/M16 A3045 RMK AO2 T00561165
KAEJ 170435Z AUTO 29007KT 10SM CLR 06/M17 A3046 RMK AO2 T00581166
KAEJ 170415Z AUTO 30008KT 10SM CLR 05/M16 A3045 RMK AO2 T00461161
KAEJ 170355Z AUTO 32004KT 10SM CLR 06/M17 A3045 RMK AO2 T00621169
KAEJ 170335Z AUTO 00000KT 10SM CLR 06/M16 A3045 RMK AO2 T00561160
KAEJ 170315Z AUTO 30009KT 10SM CLR 06/M17 A3044 RMK AO2 T00591166
KAEJ 170255Z AUTO 29009KT 10SM CLR 06/M17 A3043 RMK AO2 T00611173
KAEJ 170235Z AUTO 32010KT 10SM CLR 09/M19 A3042 RMK AO2 T00851189
KAEJ 170215Z AUTO 32010KT 10SM CLR 08/M19 A3042 RMK AO2 T00801191
KAEJ 170155Z AUTO 32010KT 10SM CLR 08/M20 A3042 RMK AO2 T00811204
KAEJ 170135Z AUTO 26009KT 10SM CLR 08/M19 A3042 RMK AO2 T00751194
KAEJ 170115Z AUTO 27010KT 10SM CLR 08/M19 A3041 RMK AO2 T00821189
KAEJ 170055Z AUTO 25007KT 10SM CLR 08/M18 A3040 RMK AO2 T00801183
KAEJ 170035Z AUTO 25006KT 10SM CLR 09/M18 A3040 RMK AO2 T00921181
KAEJ 170015Z AUTO 27005KT 10SM CLR 12/M19 A3040 RMK AO2 T01191187
KAEJ 162355Z AUTO 23006KT 10SM CLR 17/M24 A3039 RMK AO2 T01741238 10211 20150
KAEJ 162335Z AUTO 25012G18KT 10SM CLR 19/M24 A3038 RMK AO2 T01851236
KAEJ 162315Z AUTO 24010G19KT 10SM CLR 19/M25 A3038 RMK AO2 T01941246
KAEJ 162255Z AUTO 22010G15KT 10SM CLR 20/M25 A3038 RMK AO2 T02021248
KAEJ 162235Z AUTO 23009G19KT 10SM CLR 21/M25 A3038 RMK AO2 T02051252
KAEJ 162215Z AUTO 28009G17KT 10SM CLR 21/M26 A3038 RMK AO2 T02081256
KAEJ 162155Z AUTO 27010G23KT 220V300 10SM CLR 21/M26 A3038 RMK AO2 T02101264
KAEJ 162135Z AUTO 26020G26KT 10SM CLR 21/M26 A3037 RMK AO2 T02081256
KAEJ 162115Z AUTO 26014G33KT 10SM CLR 21/M26 A3037 RMK AO2 T02111260
KAEJ 162055Z AUTO 23018G26KT 10SM CLR 21/M25 A3037 RMK AO2 T02101255
KAEJ 162035Z AUTO 23016G24KT 10SM CLR 21/M26 A3038 RMK AO2 T02061262
KAEJ 162015Z AUTO 22013G25KT 10SM CLR 21/M26 A3038 RMK AO2 T02071261
KAEJ 161955Z AUTO 23012G24KT 10SM CLR 21/M27 A3039 RMK AO2 T02051267
KAEJ 161935Z AUTO 24009G19KT 10SM CLR 21/M24 A3040 RMK AO2 T02111245
KAEJ 161915Z AUTO 22015G19KT 10SM CLR 20/M23 A3042 RMK AO2 T01981235
KAEJ 161855Z AUTO 00000KT 10SM CLR 19/M19 A3044 RMK AO2 T01891191
KAEJ 161835Z AUTO 11004KT 10SM CLR 18/M15 A3045 RMK AO2 T01771151
KAEJ 161815Z AUTO 13006KT 10SM CLR 17/M14 A3047 RMK AO2 T01661139
KAEJ 161755Z AUTO 10003KT 10SM CLR 15/M16 A3048 RMK AO2 T01481164 10148 21061
KAEJ 161735Z AUTO 00000KT 10SM CLR 14/M16 A3049 RMK AO2 T01381161
KAEJ 161715Z AUTO 00000KT 10SM CLR 12/M14 A3050 RMK AO2 T01201142
KAEJ 161655Z AUTO 00000KT 10SM CLR 11/M15 A3051 RMK AO2 T01051153
KAEJ 161635Z AUTO 00000KT 10SM CLR 09/M12 A3052 RMK AO2 T00931124
KAEJ 161615Z AUTO 00000KT 10SM CLR 08/M10 A3052 RMK AO2 T00751103
KAEJ 161555Z AUTO 00000KT 10SM CLR 06/M12 A3054 RMK AO2 T00571116
KAEJ 161535Z AUTO 00000KT 10SM CLR 01/M09 A3055 RMK AO2 T00141094
KAEJ 161515Z AUTO 00000KT 10SM CLR 01/M10 A3055 RMK AO2 T00061097
KAEJ 161455Z AUTO 00000KT 10SM CLR 01/M12 A3054 RMK AO2 T00071117
KAEJ 161435Z AUTO 00000KT 10SM CLR 00/M11 A3054 RMK AO2 T10011114
KAEJ 161415Z AUTO 00000KT 10SM CLR M03/M10 A3054 RMK AO2 T10301099
KAEJ 161355Z AUTO 28003KT 10SM CLR M04/M10 A3053 RMK AO2 T10411105
KAEJ 161335Z AUTO 27005KT 10SM CLR M04/M11 A3053 RMK AO2 T10451109
KAEJ 161315Z AUTO 29005KT 10SM CLR M05/M11 A3053 RMK AO2 T10471110
KAEJ 161255Z AUTO 27005KT 10SM CLR M05/M11 A3052 RMK AO2 T10501108
KAEJ 161235Z AUTO 28006KT 10SM CLR M06/M11 A3053 RMK AO2 T10581106
KAEJ 161215Z AUTO 29003KT 10SM CLR M06/M11 A3053 RMK AO2 T10571107
KAEJ 161155Z AUTO 33003KT 10SM CLR M04/M11 A3053 RMK AO2 T10401107 11006 21048
KAEJ 161135Z AUTO 29003KT 10SM CLR M04/M11 A3052 RMK AO2 T10421107
KAEJ 161115Z AUTO 28004KT 10SM CLR M04/M11 A3052 RMK AO2 T10391106
KAEJ 161055Z AUTO 29003KT 10SM CLR M03/M11 A3053 RMK AO2 T10321108
KAEJ 161035Z AUTO 24003KT 10SM CLR M02/M11 A3053 RMK AO2 T10191110
KAEJ 161015Z AUTO 00000KT 10SM CLR M02/M11 A3052 RMK AO2 T10201109
KAEJ 160955Z AUTO 00000KT 10SM CLR M02/M11 A3052 RMK AO2 T10191108
KAEJ 160935Z AUTO 33003KT 10SM CLR M02/M11 A3053 RMK AO2 T10181110
KAEJ 160915Z AUTO 32003KT 10SM CLR M03/M10 A3053 RMK AO2 T10261105
KAEJ 160855Z AUTO 25005KT 10SM CLR M02/M10 A3054 RMK AO2 T10201105
KAEJ 160835Z AUTO 00000KT 10SM CLR M01/M11 A3054 RMK AO2 T10101107
KAEJ 160815Z AUTO 00000KT 10SM CLR M02/M10 A3055 RMK AO2 T10161105
KAEJ 160755Z AUTO 00000KT 10SM CLR M01/M11 A3055 RMK AO2 T10101106
KAEJ 160735Z AUTO 29004KT 10SM CLR M02/M10 A3055 RMK AO2 T10161102
KAEJ 160715Z AUTO 00000KT 10SM CLR M01/M10 A3055 RMK AO2 T10131105
KAEJ 160655Z AUTO 29003KT 10SM CLR M02/M10 A3055 RMK AO2 T10181104